Time;durP1;ratioP1;P1;durP2;ratioP2;P2;SDS_P1;SDS_P2;PMS_P1;PMS_P2;Temp;Humidity;BMP_temperature;BMP_pressure;BME280_temperature;BME280_humidity;BME280_pressure;Samples;Min_cycle;Max_cycle;Signal;HPM_P1;HPM_P2
2022/02/04 00:05:35;;;;;;;8.10;6.25;;;5.80;99.90;;;;;;5060376;28;20244;-69
2022/02/04 00:08:14;;;;;;;5.93;5.43;;;5.80;99.90;;;;;;5062383;28;20240;-69
2022/02/04 00:21:57;;;;;;;6.72;6.05;;;5.60;99.90;;;;;;5058523;28;20273;-68
2022/02/04 00:24:24;;;;;;;7.55;6.10;;;5.60;99.90;;;;;;5064132;28;20198;-68
2022/02/04 00:26:55;;;;;;;6.97;6.32;;;5.60;99.90;;;;;;5061968;28;20236;-68
2022/02/04 00:29:29;;;;;;;7.28;6.13;;;5.50;99.90;;;;;;5061871;28;20203;-68
2022/02/04 00:32:02;;;;;;;7.90;6.10;;;5.60;99.90;;;;;;5063576;28;20218;-68
2022/02/04 00:34:36;;;;;;;7.97;7.00;;;5.50;99.90;;;;;;5064323;28;20206;-68
2022/02/04 00:37:16;;;;;;;7.50;6.72;;;5.50;99.90;;;;;;5058516;28;20786;-69
2022/02/04 00:39:51;;;;;;;6.80;6.30;;;5.50;99.90;;;;;;5059015;28;20255;-69
2022/02/04 00:42:18;;;;;;;6.57;5.85;;;5.40;99.90;;;;;;5064271;28;20232;-69
2022/02/04 00:44:48;;;;;;;6.80;6.13;;;5.40;99.90;;;;;;5062685;28;20210;-68
2022/02/04 00:47:18;;;;;;;6.85;6.25;;;5.30;99.90;;;;;;5059152;28;20219;-68
2022/02/04 00:49:57;;;;;;;6.80;6.30;;;5.30;99.90;;;;;;5063085;28;20708;-69
2022/02/04 00:52:33;;;;;;;7.00;6.35;;;5.30;99.90;;;;;;5080402;28;20223;-70
2022/02/04 00:55:16;;;;;;;6.82;6.22;;;5.30;99.90;;;;;;5077653;28;20194;-68
2022/02/04 00:57:51;;;;;;;7.45;6.75;;;5.30;99.90;;;;;;5078578;28;20290;-69
2022/02/04 01:27:47;;;;;;;8.43;7.47;;;5.20;99.90;;;;;;5068227;28;20264;-68
2022/02/04 01:30:20;;;;;;;7.63;6.90;;;5.10;99.90;;;;;;5068618;28;20195;-68
2022/02/04 01:32:48;;;;;;;8.27;7.47;;;5.00;99.90;;;;;;5067260;28;20246;-68
2022/02/04 01:35:15;;;;;;;8.18;7.38;;;5.00;99.90;;;;;;5064592;28;20891;-68
2022/02/04 01:37:42;;;;;;;8.35;7.57;;;4.90;99.90;;;;;;5062953;28;20712;-68
2022/02/04 01:40:10;;;;;;;7.55;6.85;;;4.90;99.90;;;;;;5063662;28;20695;-68
2022/02/04 01:42:37;;;;;;;7.93;7.25;;;4.90;99.90;;;;;;5065759;28;20229;-68
2022/02/04 01:45:04;;;;;;;7.15;6.55;;;4.90;99.90;;;;;;5066917;28;20202;-68
2022/02/04 01:47:32;;;;;;;8.52;7.72;;;4.90;99.90;;;;;;5064348;28;20222;-69
2022/02/04 01:50:00;;;;;;;8.18;7.43;;;4.90;99.90;;;;;;5065586;28;20806;-68
2022/02/04 01:52:27;;;;;;;8.35;7.32;;;4.90;99.90;;;;;;5064782;28;20280;-68
2022/02/04 01:54:54;;;;;;;8.02;7.28;;;4.80;99.90;;;;;;5066284;28;20213;-68
2022/02/04 01:57:22;;;;;;;6.85;6.25;;;4.70;99.90;;;;;;5063315;28;20217;-68
2022/02/04 01:59:49;;;;;;;7.80;7.00;;;4.70;99.90;;;;;;5063847;28;20201;-68
2022/02/04 02:02:16;;;;;;;8.65;7.28;;;4.60;99.90;;;;;;5059969;28;20706;-68
2022/02/04 02:04:43;;;;;;;6.50;5.90;;;4.60;99.90;;;;;;5064161;28;22064;-68
2022/02/04 02:07:17;;;;;;;7.95;7.20;;;4.50;99.90;;;;;;5067265;28;20301;-68
2022/02/04 02:09:54;;;;;;;7.93;7.18;;;4.60;99.90;;;;;;5066019;28;20680;-68
2022/02/04 02:12:24;;;;;;;7.85;7.10;;;4.50;99.90;;;;;;5062491;28;20214;-68
2022/02/04 02:15:02;;;;;;;8.15;7.35;;;4.50;99.90;;;;;;5060873;28;20206;-69
2022/02/04 02:43:14;;;;;;;8.52;7.72;;;4.40;99.90;;;;;;5062589;28;20325;-68
2022/02/04 02:45:59;;;;;;;8.13;7.32;;;4.30;99.90;;;;;;5065028;28;20210;-67
2022/02/04 02:48:43;;;;;;;8.43;7.63;;;4.30;99.90;;;;;;5065031;28;20258;-67
2022/02/04 02:54:31;;;;;;;8.75;8.05;;;4.30;99.90;;;;;;5032106;28;20217;-71
2022/02/04 02:59:51;;;;;;;8.90;8.10;;;4.30;99.90;;;;;;5065299;28;20267;-67
2022/02/04 03:02:18;;;;;;;8.85;8.05;;;4.30;99.90;;;;;;5061144;28;20227;-68
2022/02/04 03:04:45;;;;;;;9.00;8.13;;;4.30;99.90;;;;;;5063568;28;20225;-67
2022/02/04 03:07:12;;;;;;;8.77;7.88;;;4.30;99.90;;;;;;5063477;28;20214;-68
2022/02/04 03:09:40;;;;;;;8.30;7.47;;;4.20;99.90;;;;;;5066287;28;20870;-68
2022/02/04 03:12:09;;;;;;;11.30;8.60;;;4.20;99.90;;;;;;5063930;28;20259;-68
2022/02/04 03:14:36;;;;;;;12.07;10.88;;;4.20;99.90;;;;;;5058967;28;20191;-67
2022/02/04 03:17:06;;;;;;;10.30;9.20;;;4.20;99.90;;;;;;5063653;28;20221;-69
2022/02/04 03:19:33;;;;;;;9.60;8.70;;;4.20;99.90;;;;;;5066623;28;20186;-68
2022/02/04 03:22:05;;;;;;;9.02;8.15;;;4.20;99.90;;;;;;5065083;28;20267;-67
2022/02/04 03:24:33;;;;;;;8.63;7.82;;;4.20;99.90;;;;;;5062701;28;20196;-68
2022/02/04 03:27:07;;;;;;;8.40;7.50;;;4.20;99.90;;;;;;5063546;28;20222;-69
2022/02/04 03:29:47;;;;;;;8.38;7.68;;;4.10;99.90;;;;;;5062184;28;20198;-68
2022/02/04 03:32:18;;;;;;;8.27;7.47;;;4.10;99.90;;;;;;5062017;28;20197;-68
2022/02/04 03:34:45;;;;;;;7.65;6.95;;;4.00;99.90;;;;;;5060966;28;20205;-68
2022/02/04 03:37:12;;;;;;;9.15;8.25;;;4.00;99.90;;;;;;5065175;28;20225;-68
2022/02/04 03:39:40;;;;;;;9.15;8.30;;;4.00;99.90;;;;;;5061508;28;20206;-68
2022/02/04 03:42:10;;;;;;;8.13;7.35;;;4.00;99.90;;;;;;5060934;28;20604;-68
2022/02/04 03:44:37;;;;;;;9.07;8.18;;;4.00;99.90;;;;;;5060987;28;20190;-68
2022/02/04 03:47:04;;;;;;;8.80;7.95;;;3.90;99.90;;;;;;5063542;28;20265;-68
2022/02/04 03:49:31;;;;;;;9.65;8.65;;;3.90;99.90;;;;;;5060041;28;20210;-68
2022/02/04 03:51:58;;;;;;;9.93;8.80;;;3.90;99.90;;;;;;5060419;28;20718;-68
2022/02/04 03:54:25;;;;;;;8.73;7.93;;;3.90;99.90;;;;;;5065824;28;20214;-68
2022/02/04 03:56:52;;;;;;;9.15;8.27;;;3.90;99.90;;;;;;5064635;28;20275;-68
2022/02/04 03:59:25;;;;;;;8.50;7.70;;;3.90;99.90;;;;;;5062477;28;20230;-68
2022/02/04 04:01:52;;;;;;;7.90;7.20;;;3.90;99.90;;;;;;5062122;28;20728;-68
2022/02/04 04:04:19;;;;;;;8.30;7.60;;;3.90;99.90;;;;;;5066049;28;20784;-68
2022/02/04 04:06:47;;;;;;;7.63;6.93;;;3.80;99.90;;;;;;5065763;28;20695;-68
2022/02/04 04:09:14;;;;;;;8.35;7.55;;;3.80;99.90;;;;;;5069077;28;20219;-68
2022/02/04 04:11:46;;;;;;;7.88;7.20;;;3.70;99.90;;;;;;5066071;28;20198;-67
2022/02/04 04:14:14;;;;;;;8.45;7.70;;;3.70;99.90;;;;;;5059658;28;20215;-68
2022/02/04 04:16:42;;;;;;;8.30;7.60;;;3.60;99.90;;;;;;5067563;28;20303;-68
2022/02/04 04:19:09;;;;;;;8.10;7.22;;;3.60;99.90;;;;;;5065840;28;20214;-68
2022/02/04 04:21:36;;;;;;;7.60;6.90;;;3.50;99.90;;;;;;5064004;28;20692;-67
2022/02/04 04:24:04;;;;;;;7.80;7.10;;;3.50;99.90;;;;;;5065159;28;20229;-68
2022/02/04 04:26:31;;;;;;;9.23;8.40;;;3.60;99.90;;;;;;5063225;28;20251;-68
2022/02/04 04:28:58;;;;;;;9.88;8.13;;;3.60;99.90;;;;;;5060926;28;20218;-68
2022/02/04 04:31:25;;;;;;;9.18;8.38;;;3.60;99.90;;;;;;5062695;28;20191;-68
2022/02/04 04:33:53;;;;;;;9.98;9.00;;;3.60;99.90;;;;;;5059574;28;20717;-68
2022/02/04 04:36:21;;;;;;;9.60;8.57;;;3.50;99.90;;;;;;5063010;28;20198;-68
2022/02/04 04:38:54;;;;;;;10.32;9.43;;;3.50;99.90;;;;;;5066601;28;20228;-68
2022/02/04 04:41:30;;;;;;;8.70;8.00;;;3.50;99.90;;;;;;5066503;28;20230;-72
2022/02/04 04:44:32;;;;;;;9.48;8.57;;;3.50;99.90;;;;;;5064127;28;20371;-68
2022/02/04 05:28:28;;;;;;;8.35;7.63;;;3.10;99.90;;;;;;5065448;28;20225;-68
2022/02/04 05:30:55;;;;;;;9.25;8.35;;;3.10;99.90;;;;;;5060223;28;20243;-68
2022/02/04 05:33:22;;;;;;;9.48;8.57;;;3.10;99.90;;;;;;5071621;28;20276;-68
2022/02/04 05:35:49;;;;;;;9.20;8.40;;;3.10;99.90;;;;;;5069854;28;20718;-67
2022/02/04 05:38:19;;;;;;;8.60;7.80;;;3.10;99.90;;;;;;5073730;22;20276;-76
2022/02/04 05:40:49;;;;;;;8.35;7.65;;;3.10;99.90;;;;;;5043270;28;20206;-77
2022/02/04 05:43:19;;;;;;;9.20;8.30;;;3.10;99.90;;;;;;5044925;28;20223;-76
2022/02/04 05:45:55;;;;;;;9.02;8.13;;;3.10;99.90;;;;;;5049426;28;20723;-77
2022/02/04 05:48:23;;;;;;;9.38;8.50;;;3.10;99.90;;;;;;5043691;28;20239;-77
2022/02/04 05:51:01;;;;;;;8.52;7.72;;;3.10;99.90;;;;;;5025296;28;20246;-77
2022/02/04 05:53:35;;;;;;;10.18;8.82;;;3.10;99.90;;;;;;5022807;28;20717;-77
2022/02/04 05:56:10;;;;;;;9.68;8.80;;;3.10;99.90;;;;;;5024859;28;20254;-77
2022/02/04 05:58:55;;;;;;;8.48;7.68;;;3.10;99.90;;;;;;5020614;28;20235;-77
2022/02/04 06:01:34;;;;;;;10.63;9.63;;;3.00;99.90;;;;;;5019868;28;20223;-76
2022/02/04 06:04:14;;;;;;;10.70;9.63;;;2.90;99.90;;;;;;5023084;28;20265;-77
2022/02/04 06:07:05;;;;;;;10.18;9.27;;;2.90;99.90;;;;;;5026834;28;20195;-77
2022/02/04 06:10:04;;;;;;;10.07;9.18;;;2.90;99.90;;;;;;5026064;28;20226;-77
2022/02/04 06:13:05;;;;;;;10.32;9.43;;;2.90;99.90;;;;;;5029999;28;20295;-77
2022/02/04 06:23:48;;;;;;;11.40;10.25;;;2.90;99.90;;;;;;5029514;28;20309;-77
2022/02/04 06:26:17;;;;;;;12.35;11.07;;;2.90;99.90;;;;;;5028741;28;20266;-76
2022/02/04 06:28:44;;;;;;;11.50;10.30;;;2.90;99.90;;;;;;5034912;28;20622;-77
2022/02/04 06:31:12;;;;;;;10.75;9.55;;;2.90;99.90;;;;;;5036933;28;20245;-76
2022/02/04 06:33:39;;;;;;;10.50;9.50;;;2.90;99.90;;;;;;5031587;28;20238;-77
2022/02/04 06:36:07;;;;;;;10.88;9.77;;;2.90;99.90;;;;;;5030043;28;20249;-77
2022/02/04 06:38:34;;;;;;;10.98;9.95;;;2.90;99.90;;;;;;5030650;28;20285;-77
2022/02/04 06:41:02;;;;;;;11.38;10.27;;;2.80;99.90;;;;;;5027732;28;20212;-77
2022/02/04 06:43:32;;;;;;;10.70;9.70;;;2.80;99.90;;;;;;5023924;28;20230;-77
2022/02/04 06:45:59;;;;;;;10.45;9.40;;;2.70;99.90;;;;;;5029327;28;20659;-76
2022/02/04 06:48:26;;;;;;;10.82;9.77;;;2.80;99.90;;;;;;5027034;28;20246;-77
2022/02/04 06:50:53;;;;;;;10.60;9.63;;;2.80;99.90;;;;;;5032913;28;20203;-77
2022/02/04 06:53:20;;;;;;;10.00;9.13;;;2.80;99.90;;;;;;5024644;28;20196;-76
2022/02/04 06:55:48;;;;;;;10.15;9.15;;;2.80;99.90;;;;;;5027548;28;20205;-77
2022/02/04 06:58:15;;;;;;;9.98;9.07;;;2.80;99.90;;;;;;5029100;28;20216;-77
2022/02/04 07:00:44;;;;;;;9.30;8.60;;;2.80;99.90;;;;;;5031711;28;20277;-77
2022/02/04 07:03:11;;;;;;;9.93;9.02;;;2.90;99.90;;;;;;5030844;28;20216;-77
2022/02/04 07:05:42;;;;;;;7.85;7.15;;;3.00;99.90;;;;;;5027133;28;20230;-76
2022/02/04 07:08:15;;;;;;;9.20;8.40;;;3.10;99.90;;;;;;5029543;28;20702;-77
2022/02/04 07:11:01;;;;;;;8.88;8.07;;;3.20;99.90;;;;;;5027624;28;20277;-76
2022/02/04 07:13:39;;;;;;;10.65;9.52;;;3.30;99.90;;;;;;5026464;28;20739;-77
2022/02/04 07:16:24;;;;;;;8.27;7.47;;;3.30;99.90;;;;;;5026328;28;20200;-76
2022/02/04 07:21:36;;;;;;;9.05;8.25;;;3.40;99.90;;;;;;5022278;28;20227;-77
2022/02/04 07:24:03;;;;;;;8.95;8.05;;;3.40;99.90;;;;;;5029031;28;20220;-77
2022/02/04 07:26:30;;;;;;;8.82;8.05;;;3.50;99.90;;;;;;5022851;28;20204;-78
2022/02/04 07:28:57;;;;;;;8.02;7.30;;;3.50;99.90;;;;;;5023659;28;20223;-77
2022/02/04 07:31:28;;;;;;;8.93;8.13;;;3.50;99.90;;;;;;5021606;28;20207;-76
2022/02/04 07:34:09;;;;;;;8.95;8.05;;;3.60;99.90;;;;;;5028393;28;20246;-77
2022/02/04 07:42:04;;;;;;;7.50;6.80;;;3.70;99.90;;;;;;4996799;28;20248;-77
2022/02/04 07:44:31;;;;;;;9.20;8.38;;;4.00;99.90;;;;;;5025722;28;20223;-76
2022/02/04 07:46:59;;;;;;;9.25;8.45;;;4.50;99.90;;;;;;5025176;28;20203;-77
2022/02/04 07:49:26;;;;;;;9.02;8.23;;;5.10;99.90;;;;;;5030279;28;20280;-77
2022/02/04 07:51:53;;;;;;;9.57;8.68;;;5.60;99.90;;;;;;5029036;28;20195;-77
2022/02/04 07:54:20;;;;;;;8.88;8.00;;;6.00;99.90;;;;;;5026962;28;20223;-77
2022/02/04 07:56:47;;;;;;;8.35;7.55;;;6.40;99.90;;;;;;5028678;28;20207;-76
2022/02/04 07:59:14;;;;;;;8.40;7.60;;;6.80;99.90;;;;;;5024400;28;20220;-77
2022/02/04 08:01:41;;;;;;;8.95;8.05;;;7.10;99.90;;;;;;5028346;28;20220;-74
2022/02/04 08:04:15;;;;;;;8.80;7.95;;;7.30;99.90;;;;;;5024871;28;20226;-75
2022/02/04 08:06:48;;;;;;;9.80;8.48;;;7.50;99.90;;;;;;5026302;28;20276;-74
2022/02/04 08:09:17;;;;;;;9.32;8.52;;;7.70;99.90;;;;;;5024072;28;20744;-74
2022/02/04 08:12:00;;;;;;;8.93;8.13;;;7.90;99.90;;;;;;5020328;28;20641;-75
2022/02/04 08:14:51;;;;;;;9.25;8.35;;;8.10;99.90;;;;;;5026443;28;20223;-75
2022/02/04 08:20:24;;;;;;;7.35;6.65;;;8.70;99.90;;;;;;5023491;28;20365;-75
2022/02/04 08:48:30;;;;;;;9.27;6.07;;;10.70;99.90;;;;;;5026632;28;20577;-76
2022/02/04 08:54:02;;;;;;;7.10;6.40;;;10.50;99.90;;;;;;5030243;28;20241;-75
2022/02/04 08:56:43;;;;;;;6.22;5.68;;;10.60;99.90;;;;;;5029402;28;20243;-75
2022/02/04 08:59:17;;;;;;;7.53;5.57;;;10.60;99.90;;;;;;5025535;28;20217;-75
2022/02/04 09:01:52;;;;;;;6.40;5.80;;;11.00;99.90;;;;;;5026058;28;20227;-77
2022/02/04 09:04:29;;;;;;;6.60;6.00;;;11.20;99.90;;;;;;5030836;28;20282;-76
2022/02/04 09:07:02;;;;;;;5.82;5.22;;;11.50;99.90;;;;;;5027989;28;20227;-77
2022/02/04 09:09:47;;;;;;;6.05;5.55;;;11.90;99.90;;;;;;5025005;28;20244;-77
2022/02/04 09:16:50;;;;;;;5.85;5.25;;;11.90;99.90;;;;;;5022904;28;20300;-76
2022/02/04 09:18:32;;;;;;;8.57;5.85;;;12.10;99.90;;;;;;5020732;28;20276;-76
2022/02/04 09:23:41;;;;;;;5.85;5.30;;;12.10;99.90;;;;;;5003012;28;20737;-76
2022/02/04 09:26:09;;;;;;;6.07;5.38;;;12.00;99.90;;;;;;5017441;28;20220;-76
2022/02/04 09:28:36;;;;;;;6.32;5.72;;;11.80;99.90;;;;;;5021081;28;20223;-76
2022/02/04 09:31:05;;;;;;;5.00;4.60;;;11.50;99.90;;;;;;5022874;28;20203;-76
2022/02/04 09:33:32;;;;;;;6.10;5.50;;;11.10;99.90;;;;;;5023139;28;20219;-73
2022/02/04 09:35:59;;;;;;;6.50;5.85;;;11.30;99.90;;;;;;5023691;28;20249;-76
2022/02/04 09:38:27;;;;;;;6.30;5.60;;;12.00;99.90;;;;;;5027122;28;20230;-76
2022/02/04 09:40:54;;;;;;;5.30;4.80;;;13.20;99.90;;;;;;5018640;28;20290;-77
2022/02/04 09:43:22;;;;;;;6.65;5.93;;;14.20;99.90;;;;;;5019473;28;20230;-76
2022/02/04 09:45:49;;;;;;;5.78;5.18;;;14.60;99.90;;;;;;5016186;28;20212;-77
2022/02/04 09:48:16;;;;;;;6.72;5.60;;;14.60;99.90;;;;;;5016830;28;20512;-78
2022/02/04 09:50:47;;;;;;;6.60;6.00;;;14.40;99.90;;;;;;5026543;28;20606;-78
2022/02/04 10:10:38;;;;;;;5.95;5.35;;;13.00;99.90;;;;;;4988946;28;20187;-77
2022/02/04 10:13:20;;;;;;;6.75;6.05;;;13.20;99.90;;;;;;5016144;28;20220;-76
2022/02/04 10:15:59;;;;;;;7.00;6.18;;;12.80;99.90;;;;;;5020533;28;20659;-76
2022/02/04 10:18:39;;;;;;;6.47;5.85;;;12.70;99.90;;;;;;5016913;28;20226;-77
2022/02/04 10:21:09;;;;;;;7.93;6.93;;;13.00;99.90;;;;;;5019318;28;20262;-77
2022/02/04 10:23:46;;;;;;;8.15;6.13;;;13.00;99.90;;;;;;5016603;28;20702;-77
2022/02/04 10:26:13;;;;;;;6.97;6.10;;;12.80;99.90;;;;;;5016659;28;20618;-77
2022/02/04 10:28:40;;;;;;;7.05;6.35;;;12.90;99.90;;;;;;5016575;28;20322;-78
2022/02/04 10:31:11;;;;;;;8.90;6.35;;;13.20;99.90;;;;;;5012919;28;20192;-77
2022/02/04 10:33:56;;;;;;;6.38;5.40;;;13.30;99.90;;;;;;5018216;28;20774;-74
2022/02/04 10:36:48;;;;;;;8.60;5.65;;;13.40;99.90;;;;;;5018805;28;20227;-77
2022/02/04 10:39:52;;;;;;;6.35;5.47;;;13.60;99.90;;;;;;5013786;28;20226;-76
2022/02/04 10:42:29;;;;;;;6.72;6.10;;;13.60;99.90;;;;;;5011076;28;20629;-75
2022/02/04 10:50:57;;;;;;;7.55;6.05;;;13.10;99.90;;;;;;5018234;28;20222;-73
2022/02/04 10:59:28;;;;;;;6.75;5.47;;;13.30;99.90;;;;;;5011802;28;20705;-76
2022/02/04 11:02:18;;;;;;;6.93;5.82;;;13.50;99.90;;;;;;5015456;28;20199;-73
2022/02/04 11:05:02;;;;;;;5.95;5.40;;;13.50;99.90;;;;;;5016286;28;20228;-74
2022/02/04 11:08:03;;;;;;;6.50;5.57;;;13.80;99.90;;;;;;5020650;28;20199;-76
2022/02/04 11:36:38;;;;;;;5.95;4.80;;;14.10;99.90;;;;;;5011351;28;20719;-75
2022/02/04 11:54:44;;;;;;;5.18;4.70;;;14.20;99.90;;;;;;5012289;28;20255;-70
2022/02/04 11:57:20;;;;;;;4.90;4.50;;;14.10;99.90;;;;;;5014322;28;20223;-69
2022/02/04 11:59:51;;;;;;;4.97;4.47;;;13.90;99.90;;;;;;5018052;28;20576;-70
2022/02/04 12:02:46;;;;;;;5.53;4.80;;;13.70;99.90;;;;;;5009126;28;20232;-71
2022/02/04 12:05:33;;;;;;;5.93;4.75;;;13.90;99.90;;;;;;5021956;28;20547;-69
2022/02/04 12:08:21;;;;;;;5.40;4.90;;;14.20;99.90;;;;;;5018505;28;20227;-69
2022/02/04 12:10:51;;;;;;;7.65;5.07;;;14.40;99.90;;;;;;5015837;28;21078;-70
2022/02/04 12:13:20;;;;;;;5.43;4.60;;;14.50;99.90;;;;;;5023044;28;20211;-69
2022/02/04 12:15:48;;;;;;;5.35;4.95;;;14.60;99.90;;;;;;5020782;28;20298;-69
2022/02/04 12:18:18;;;;;;;5.32;4.82;;;14.80;99.90;;;;;;5023564;28;20243;-69
2022/02/04 12:21:05;;;;;;;5.78;4.80;;;15.00;99.90;;;;;;5024715;28;20259;-70
2022/02/04 12:23:49;;;;;;;5.60;5.10;;;15.20;99.90;;;;;;5016758;28;20598;-69
2022/02/04 12:26:31;;;;;;;6.07;5.47;;;15.00;99.90;;;;;;5016204;28;20227;-70
2022/02/04 12:29:02;;;;;;;5.60;5.10;;;14.80;99.90;;;;;;5016704;28;20302;-70
2022/02/04 12:31:30;;;;;;;6.80;4.93;;;14.60;99.90;;;;;;5015035;28;20227;-70
2022/02/04 12:34:00;;;;;;;5.65;5.15;;;14.40;99.90;;;;;;5015285;28;20660;-70
2022/02/04 12:36:28;;;;;;;6.43;5.00;;;14.40;99.90;;;;;;5017560;28;20624;-70
2022/02/04 12:38:57;;;;;;;4.70;4.30;;;14.30;99.90;;;;;;5021602;28;20285;-70
2022/02/04 12:41:31;;;;;;;6.35;5.38;;;14.50;99.90;;;;;;5021284;28;20745;-70
2022/02/04 12:44:01;;;;;;;5.57;5.05;;;14.30;99.90;;;;;;5020898;28;20722;-70
2022/02/04 12:46:31;;;;;;;5.70;5.20;;;14.10;99.90;;;;;;5015824;28;20192;-70
2022/02/04 12:49:04;;;;;;;5.93;5.32;;;14.10;99.90;;;;;;5019152;28;20226;-70
2022/02/04 12:51:49;;;;;;;6.07;5.15;;;14.20;99.90;;;;;;5045343;28;20200;-71
2022/02/04 12:54:28;;;;;;;5.55;5.05;;;14.30;99.90;;;;;;5040334;28;20507;-70
2022/02/04 12:59:58;;;;;;;6.20;5.60;;;14.20;99.90;;;;;;5015866;28;20228;-69
2022/02/04 13:02:45;;;;;;;5.35;4.85;;;14.00;99.90;;;;;;5021499;28;20575;-69
2022/02/04 13:08:11;;;;;;;5.53;5.03;;;13.20;99.90;;;;;;5024431;28;20191;-69
2022/02/04 13:10:38;;;;;;;5.07;4.60;;;12.90;99.90;;;;;;5022251;28;20230;-69
2022/02/04 13:13:10;;;;;;;5.50;5.00;;;13.00;99.90;;;;;;5022369;28;20205;-70
2022/02/04 13:15:39;;;;;;;5.18;4.68;;;13.00;99.90;;;;;;5020810;28;20428;-69
2022/02/04 13:18:07;;;;;;;6.22;5.72;;;13.10;99.90;;;;;;5023882;28;20704;-70
2022/02/04 13:20:36;;;;;;;7.57;5.28;;;13.20;99.90;;;;;;5017472;28;20706;-69
2022/02/04 13:23:07;;;;;;;5.60;5.10;;;13.40;99.90;;;;;;5019803;28;20212;-69
2022/02/04 13:25:36;;;;;;;5.40;5.00;;;13.60;99.90;;;;;;5023317;28;20272;-70
2022/02/04 13:28:14;;;;;;;5.70;5.20;;;13.20;99.90;;;;;;5023782;28;20204;-70
2022/02/04 13:30:43;;;;;;;7.13;6.10;;;13.10;99.90;;;;;;5019408;28;20219;-69
2022/02/04 13:33:19;;;;;;;7.60;5.70;;;12.80;99.90;;;;;;5020245;28;20194;-69
2022/02/04 13:35:55;;;;;;;6.45;5.85;;;12.80;99.90;;;;;;5024328;28;20223;-69
2022/02/04 13:38:29;;;;;;;6.18;5.63;;;12.70;99.90;;;;;;5030091;28;20210;-70
2022/02/04 13:44:00;;;;;;;5.75;5.15;;;12.70;99.90;;;;;;5025998;28;20540;-68
2022/02/04 13:46:44;;;;;;;5.28;4.78;;;13.00;99.90;;;;;;5027353;28;20217;-69
2022/02/04 13:52:03;;;;;;;6.88;5.20;;;12.80;99.90;;;;;;5028546;28;20212;-69
2022/02/04 13:54:40;;;;;;;5.60;5.10;;;12.60;99.90;;;;;;5025493;28;20223;-71
2022/02/04 13:57:20;;;;;;;5.57;5.05;;;12.50;99.90;;;;;;5023069;28;20251;-70
2022/02/04 14:00:05;;;;;;;6.07;5.47;;;12.60;99.90;;;;;;5030903;28;20205;-70
2022/02/04 14:02:39;;;;;;;6.28;5.68;;;12.40;99.90;;;;;;5026455;28;20199;-70
2022/02/04 14:05:08;;;;;;;6.15;5.65;;;12.20;99.90;;;;;;5029535;28;20546;-69
2022/02/04 14:07:38;;;;;;;6.82;6.20;;;12.20;99.90;;;;;;5027829;28;20227;-70
2022/02/04 14:10:24;;;;;;;6.35;5.75;;;12.30;99.90;;;;;;5025651;28;22842;-70
2022/02/04 14:13:06;;;;;;;6.43;5.82;;;12.40;99.90;;;;;;5032089;28;20465;-69
2022/02/04 14:15:36;;;;;;;5.63;5.13;;;12.40;99.90;;;;;;5024812;28;20277;-69
2022/02/04 14:18:07;;;;;;;8.20;6.57;;;12.50;99.90;;;;;;5029572;28;20720;-69
2022/02/04 14:20:36;;;;;;;8.35;6.30;;;12.40;99.90;;;;;;5028262;28;20281;-70
2022/02/04 14:23:04;;;;;;;6.40;5.72;;;12.20;99.90;;;;;;5025697;28;20223;-70
2022/02/04 14:25:31;;;;;;;6.85;6.00;;;12.00;99.90;;;;;;5031759;28;20862;-68
2022/02/04 14:28:02;;;;;;;8.20;6.88;;;11.80;99.90;;;;;;5025580;28;20206;-70
2022/02/04 14:30:34;;;;;;;6.40;5.80;;;11.70;99.90;;;;;;5023369;28;20219;-70
2022/02/04 14:33:10;;;;;;;7.15;6.47;;;11.60;99.90;;;;;;5024993;28;20362;-70
2022/02/04 14:35:51;;;;;;;6.25;5.65;;;11.50;99.90;;;;;;5026958;28;20246;-69
2022/02/04 14:49:54;;;;;;;6.05;5.45;;;11.20;99.90;;;;;;5026909;28;20559;-71
2022/02/04 14:52:25;;;;;;;5.55;5.03;;;11.20;99.90;;;;;;5027965;28;20227;-71
2022/02/04 15:03:17;;;;;;;5.45;4.95;;;11.00;99.90;;;;;;5019083;28;20508;-70
2022/02/04 15:05:48;;;;;;;5.75;5.25;;;11.00;99.90;;;;;;5020953;28;20299;-70
2022/02/04 15:08:18;;;;;;;6.55;5.88;;;10.90;99.90;;;;;;5020892;28;20207;-70
2022/02/04 15:10:48;;;;;;;5.55;5.00;;;10.80;99.90;;;;;;5021229;28;20231;-70
2022/02/04 15:13:16;;;;;;;6.20;5.60;;;10.70;99.90;;;;;;5019675;28;20586;-70
2022/02/04 15:15:44;;;;;;;7.05;6.07;;;10.50;99.90;;;;;;5019377;28;20226;-72
2022/02/04 15:18:14;;;;;;;7.20;6.03;;;10.30;99.90;;;;;;5019257;28;20200;-71
2022/02/04 15:20:41;;;;;;;7.05;6.35;;;10.10;99.90;;;;;;5021945;28;20701;-71
2022/02/04 15:23:12;;;;;;;7.03;6.32;;;9.90;99.90;;;;;;5018053;28;20219;-71
2022/02/04 15:25:40;;;;;;;7.10;6.50;;;9.80;99.90;;;;;;5016831;28;20227;-72
2022/02/04 15:28:22;;;;;;;6.22;5.63;;;9.80;99.90;;;;;;5018779;28;20192;-70
2022/02/04 15:30:52;;;;;;;6.30;5.70;;;9.80;99.90;;;;;;5017824;28;20705;-70
2022/02/04 15:33:20;;;;;;;6.25;5.57;;;9.90;99.90;;;;;;5020215;28;20527;-69
2022/02/04 15:35:47;;;;;;;6.65;6.05;;;9.90;99.90;;;;;;5025220;28;20281;-71
2022/02/04 15:38:16;;;;;;;6.68;6.07;;;9.80;99.90;;;;;;5022900;28;20192;-70
2022/02/04 15:40:46;;;;;;;7.28;6.22;;;9.80;99.90;;;;;;5015896;28;20219;-72
2022/02/04 15:43:14;;;;;;;7.22;6.05;;;9.80;99.90;;;;;;5020457;28;20201;-72
2022/02/04 15:49:04;;;;;;;6.63;6.03;;;9.60;99.90;;;;;;4954518;28;20628;-72
2022/02/04 15:51:42;;;;;;;6.25;5.75;;;9.50;99.90;;;;;;4955218;28;20707;-72
2022/02/04 15:54:39;;;;;;;6.78;6.15;;;9.50;99.90;;;;;;4998484;28;20191;-74
2022/02/04 15:57:20;;;;;;;6.78;5.82;;;9.50;99.90;;;;;;5016496;28;20254;-73
2022/02/04 16:00:17;;;;;;;7.97;7.18;;;9.20;99.90;;;;;;5023539;28;20491;-74
2022/02/04 16:03:01;;;;;;;11.60;7.95;;;9.10;99.90;;;;;;5019079;28;20319;-72
2022/02/04 16:05:30;;;;;;;6.93;6.32;;;9.00;99.90;;;;;;5019723;28;20310;-72
2022/02/04 16:07:57;;;;;;;9.25;8.35;;;9.00;99.90;;;;;;5016484;28;20302;-74
2022/02/04 16:10:33;;;;;;;8.48;7.57;;;8.90;99.90;;;;;;5018839;28;20219;-72
2022/02/04 16:13:11;;;;;;;9.45;8.50;;;8.90;99.90;;;;;;5021230;28;20652;-73
2022/02/04 16:15:49;;;;;;;8.60;7.70;;;8.80;99.90;;;;;;5018791;28;20187;-73
2022/02/04 16:18:20;;;;;;;7.93;7.13;;;8.70;99.90;;;;;;5017431;28;20262;-72
2022/02/04 16:21:03;;;;;;;7.63;6.93;;;8.60;99.90;;;;;;5019759;28;20230;-75
2022/02/04 16:23:34;;;;;;;7.70;6.95;;;8.60;99.90;;;;;;5017497;28;20717;-71
2022/02/04 16:26:24;;;;;;;7.85;7.13;;;8.60;99.90;;;;;;5017245;28;20220;-74
2022/02/04 16:28:51;;;;;;;7.85;7.05;;;8.50;99.90;;;;;;5020024;28;20211;-75
2022/02/04 16:31:19;;;;;;;8.32;7.35;;;8.50;99.90;;;;;;5017415;28;20219;-73
2022/02/04 16:33:47;;;;;;;9.95;7.25;;;8.50;99.90;;;;;;5020840;28;20195;-73
2022/02/04 16:36:17;;;;;;;9.98;8.98;;;8.40;99.90;;;;;;5021821;28;20274;-77
2022/02/04 16:38:51;;;;;;;8.40;7.32;;;8.30;99.90;;;;;;5020612;28;20286;-72
2022/02/04 16:41:25;;;;;;;9.75;7.80;;;8.20;99.90;;;;;;5021500;28;20227;-72
2022/02/04 16:43:52;;;;;;;11.27;8.40;;;8.20;99.90;;;;;;5026427;28;20279;-73
2022/02/04 16:46:19;;;;;;;13.45;10.43;;;8.10;99.90;;;;;;5023672;28;20281;-73
2022/02/04 16:48:46;;;;;;;11.25;10.00;;;8.00;99.90;;;;;;5022003;28;20203;-72
2022/02/04 16:51:16;;;;;;;10.25;8.75;;;7.90;99.90;;;;;;5020893;28;20702;-72
2022/02/04 16:53:44;;;;;;;13.02;10.75;;;7.90;99.90;;;;;;5018570;28;20605;-73
2022/02/04 16:56:12;;;;;;;10.43;8.65;;;7.80;99.90;;;;;;5024613;28;20433;-73
2022/02/04 16:58:40;;;;;;;9.88;8.68;;;7.70;99.90;;;;;;5023686;28;20223;-72
2022/02/04 17:01:07;;;;;;;11.55;10.05;;;7.70;99.90;;;;;;5016134;28;20224;-72
2022/02/04 17:03:34;;;;;;;8.80;7.90;;;7.70;99.90;;;;;;5025734;28;20192;-72
2022/02/04 17:06:04;;;;;;;8.98;8.07;;;7.60;99.90;;;;;;5021473;28;20231;-73
2022/02/04 17:08:36;;;;;;;9.75;8.70;;;7.60;99.90;;;;;;5022625;28;20192;-72
2022/02/04 17:11:08;;;;;;;10.73;9.50;;;7.70;99.90;;;;;;5019472;28;21199;-70
2022/02/04 17:13:35;;;;;;;10.77;9.63;;;7.60;99.90;;;;;;5016990;28;20200;-74
2022/02/04 17:16:04;;;;;;;10.40;9.30;;;7.60;99.90;;;;;;5024255;28;20486;-71
2022/02/04 17:18:31;;;;;;;13.73;10.23;;;7.40;99.90;;;;;;5021196;28;20192;-70
2022/02/04 17:20:59;;;;;;;11.50;10.40;;;7.30;99.90;;;;;;5026699;28;20227;-70
2022/02/04 17:23:30;;;;;;;12.23;9.63;;;7.20;99.90;;;;;;5025276;28;20202;-70
2022/02/04 17:25:59;;;;;;;11.63;10.32;;;7.20;99.90;;;;;;5017562;28;20223;-70
2022/02/04 17:28:29;;;;;;;11.25;10.05;;;7.20;99.90;;;;;;5022604;28;20250;-70
2022/02/04 17:30:57;;;;;;;12.23;10.75;;;7.20;99.90;;;;;;5024412;28;20354;-69
2022/02/04 17:33:27;;;;;;;11.85;10.20;;;7.20;99.90;;;;;;5023339;28;20702;-71
2022/02/04 17:35:56;;;;;;;12.00;10.43;;;7.20;99.90;;;;;;5024118;28;20199;-70
2022/02/04 17:38:24;;;;;;;11.63;10.52;;;7.20;99.90;;;;;;5022765;28;20650;-70
2022/02/04 17:40:52;;;;;;;13.05;11.75;;;7.20;99.90;;;;;;5045824;22;20231;-75
2022/02/04 17:43:20;;;;;;;14.57;10.88;;;7.10;99.90;;;;;;5040676;28;20576;-75
2022/02/04 17:45:47;;;;;;;12.30;10.93;;;7.00;99.90;;;;;;5040890;28;20219;-75
2022/02/04 17:48:22;;;;;;;13.60;12.30;;;7.00;99.90;;;;;;5041597;28;20554;-74
2022/02/04 17:50:57;;;;;;;13.38;12.02;;;6.90;99.90;;;;;;5042824;28;20209;-75
2022/02/04 17:53:26;;;;;;;14.02;12.52;;;6.80;99.90;;;;;;5039688;28;20221;-75